createdAt,value
2022-11-26T00:00:32.820Z,-3.27
2022-11-26T00:02:35.683Z,-3.27
2022-11-26T00:04:38.610Z,-3.29
2022-11-26T00:06:44.953Z,-3.28
2022-11-26T00:08:47.616Z,-3.30
2022-11-26T00:10:52.865Z,-3.32
2022-11-26T00:12:56.208Z,-3.29
2022-11-26T00:15:00.375Z,-3.28
2022-11-26T00:17:03.113Z,-3.29
2022-11-26T00:19:06.152Z,-3.30
2022-11-26T00:21:23.108Z,-3.31
2022-11-26T00:23:28.509Z,-3.30
2022-11-26T00:25:39.061Z,-3.32
2022-11-26T00:27:41.784Z,-3.32
2022-11-26T00:29:44.457Z,-3.32
2022-11-26T00:31:47.139Z,-3.32
2022-11-26T00:33:49.996Z,-3.30
2022-11-26T00:35:59.377Z,-3.31
2022-11-26T00:38:03.043Z,-3.31
2022-11-26T00:40:06.434Z,-3.32
2022-11-26T00:42:11.018Z,-3.28
2022-11-26T00:44:21.566Z,-3.26
2022-11-26T00:46:24.271Z,-3.26
2022-11-26T00:48:26.865Z,-3.25
2022-11-26T00:50:43.874Z,-3.24
2022-11-26T00:52:49.208Z,-3.23
2022-11-26T00:54:51.822Z,-3.22
2022-11-26T00:56:55.154Z,-3.20
2022-11-26T00:58:58.061Z,-3.23
2022-11-26T01:01:00.781Z,-3.22
2022-11-26T01:03:03.552Z,-3.23
2022-11-26T01:05:08.686Z,-3.22
2022-11-26T01:07:11.450Z,-3.23
2022-11-26T01:09:19.634Z,-3.25
2022-11-26T01:11:23.824Z,-3.23
2022-11-26T01:13:27.522Z,-3.21
2022-11-26T01:15:30.197Z,-3.23
2022-11-26T01:17:32.750Z,-3.20
2022-11-26T01:19:36.561Z,-3.21
2022-11-26T01:21:39.592Z,-3.19
2022-11-26T01:23:42.415Z,-3.20
2022-11-26T01:25:46.649Z,-3.17
2022-11-26T01:27:49.870Z,-3.17
2022-11-26T01:29:52.463Z,-3.16
2022-11-26T01:31:55.122Z,-3.17
2022-11-26T01:33:58.398Z,-3.19
2022-11-26T01:36:01.083Z,-3.15
2022-11-26T01:38:04.721Z,-3.20
2022-11-26T01:40:25.491Z,-3.20
2022-11-26T01:42:51.091Z,-3.24
2022-11-26T01:44:53.681Z,-3.25
2022-11-26T01:46:57.322Z,-3.26
2022-11-26T01:49:21.381Z,-3.28
2022-11-26T01:51:27.463Z,-3.29
2022-11-26T01:53:59.218Z,-3.30
2022-11-26T01:56:14.221Z,-3.32
2022-11-26T01:58:21.785Z,-3.35
2022-11-26T02:00:24.667Z,-3.34
2022-11-26T02:02:30.185Z,-3.35
2022-11-26T02:04:56.736Z,-3.36
2022-11-26T02:07:00.028Z,-3.34
2022-11-26T02:09:06.350Z,-3.36
2022-11-26T02:11:18.491Z,-3.35
2022-11-26T02:13:41.380Z,-3.35
2022-11-26T02:15:55.034Z,-3.37
2022-11-26T02:18:03.489Z,-3.37
2022-11-26T02:20:31.007Z,-3.36
2022-11-26T02:22:48.451Z,-3.37
2022-11-26T02:25:04.290Z,-3.38
2022-11-26T02:27:51.410Z,-3.36
2022-11-26T02:30:12.439Z,-3.35
2022-11-26T02:32:20.981Z,-3.37
2022-11-26T02:34:34.260Z,-3.36
2022-11-26T02:36:52.372Z,-3.37
2022-11-26T02:38:55.012Z,-3.37
2022-11-26T02:40:57.881Z,-3.36
2022-11-26T02:43:00.467Z,-3.36
2022-11-26T02:45:10.487Z,-3.34
2022-11-26T02:47:16.239Z,-3.35
2022-11-26T02:49:22.388Z,-3.35
2022-11-26T02:51:32.005Z,-3.34
2022-11-26T02:53:39.479Z,-3.34
2022-11-26T02:55:49.085Z,-3.34
2022-11-26T02:57:52.610Z,-3.35
2022-11-26T02:59:56.009Z,-3.32
2022-11-26T03:02:05.144Z,-3.32
2022-11-26T03:04:13.038Z,-3.32
2022-11-26T03:06:18.277Z,-3.30
2022-11-26T03:08:21.506Z,-3.30
2022-11-26T03:10:29.752Z,-3.30
2022-11-26T03:12:32.525Z,-3.29
2022-11-26T03:14:35.340Z,-3.28
2022-11-26T03:16:38.260Z,-3.30
2022-11-26T03:18:41.117Z,-3.25
2022-11-26T03:20:43.732Z,-3.26
2022-11-26T03:22:46.334Z,-3.25
2022-11-26T03:24:49.027Z,-3.25
2022-11-26T03:26:51.695Z,-3.26
2022-11-26T03:28:54.244Z,-3.27
2022-11-26T03:30:56.970Z,-3.28
2022-11-26T03:32:59.617Z,-3.27
2022-11-26T03:35:02.432Z,-3.29
2022-11-26T03:37:06.172Z,-3.24
2022-11-26T03:39:08.831Z,-3.24
2022-11-26T03:41:11.543Z,-3.31
2022-11-26T03:43:14.166Z,-3.26
2022-11-26T03:45:16.762Z,-3.27
2022-11-26T03:47:19.451Z,-3.26
2022-11-26T03:49:22.137Z,-3.25
2022-11-26T03:51:24.836Z,-3.27
2022-11-26T03:53:27.808Z,-3.27
2022-11-26T03:55:30.376Z,-3.28
2022-11-26T03:57:33.109Z,-3.29
2022-11-26T03:59:35.852Z,-3.29
2022-11-26T04:01:38.532Z,-3.27
2022-11-26T04:03:41.568Z,-3.27
2022-11-26T04:05:44.254Z,-3.24
2022-11-26T04:07:46.903Z,-3.23
2022-11-26T04:09:49.571Z,-3.23
2022-11-26T04:11:52.323Z,-3.22
2022-11-26T04:13:54.953Z,-3.20
2022-11-26T04:15:57.580Z,-3.21
2022-11-26T04:18:00.251Z,-3.22
2022-11-26T04:20:03.203Z,-3.24
2022-11-26T04:22:06.173Z,-3.22
2022-11-26T04:24:09.132Z,-3.22
2022-11-26T04:26:11.736Z,-3.21
2022-11-26T04:28:15.338Z,-3.21
2022-11-26T04:30:18.208Z,-3.19
2022-11-26T04:32:21.084Z,-3.18
2022-11-26T04:34:23.692Z,-3.19
2022-11-26T04:36:26.491Z,-3.19
2022-11-26T04:38:29.087Z,-3.17
2022-11-26T04:40:31.949Z,-3.21
2022-11-26T04:42:34.987Z,-3.15
2022-11-26T04:44:37.777Z,-3.15
2022-11-26T04:46:40.599Z,-3.13
2022-11-26T04:48:43.263Z,-3.11
2022-11-26T04:50:46.104Z,-3.08
2022-11-26T04:52:49.521Z,-3.10
2022-11-26T04:54:52.181Z,-3.01
2022-11-26T04:56:54.777Z,-2.97
2022-11-26T04:58:57.404Z,-2.95
2022-11-26T05:01:00.771Z,-2.93
2022-11-26T05:03:03.491Z,-2.90
2022-11-26T05:05:06.527Z,-2.88
2022-11-26T05:07:09.376Z,-2.84
2022-11-26T05:09:12.407Z,-2.88
2022-11-26T05:11:15.093Z,-2.85
2022-11-26T05:13:17.723Z,-2.84
2022-11-26T05:15:20.696Z,-2.81
2022-11-26T05:17:23.261Z,-2.78
2022-11-26T05:19:26.015Z,-2.78
2022-11-26T05:21:28.663Z,-2.76
2022-11-26T05:23:31.219Z,-2.73
2022-11-26T05:25:33.982Z,-2.69
2022-11-26T05:27:36.905Z,-2.70
2022-11-26T05:29:39.561Z,-2.67
2022-11-26T05:31:42.369Z,-2.64
2022-11-26T05:33:45.131Z,-2.64
2022-11-26T05:35:47.749Z,-2.63
2022-11-26T05:37:50.513Z,-2.62
2022-11-26T05:39:53.184Z,-2.59
2022-11-26T05:41:55.874Z,-2.55
2022-11-26T05:43:58.654Z,-2.51
2022-11-26T05:46:06.386Z,-2.52
2022-11-26T05:48:09.138Z,-2.50
2022-11-26T05:50:12.460Z,-2.50
2022-11-26T05:52:15.348Z,-2.50
2022-11-26T05:54:18.325Z,-2.52
2022-11-26T05:56:21.017Z,-2.49
2022-11-26T05:58:23.733Z,-2.46
2022-11-26T06:00:26.711Z,-2.44
2022-11-26T06:02:29.849Z,-2.45
2022-11-26T06:04:32.866Z,-2.42
2022-11-26T06:06:35.815Z,-2.40
2022-11-26T06:08:38.471Z,-2.38
2022-11-26T06:10:44.822Z,-2.34
2022-11-26T06:12:47.449Z,-2.31
2022-11-26T06:14:50.256Z,-2.30
2022-11-26T06:16:52.964Z,-2.26
2022-11-26T06:18:56.434Z,-2.23
2022-11-26T06:21:03.898Z,-2.25
2022-11-26T06:23:06.483Z,-2.22
2022-11-26T06:25:11.056Z,-2.21
2022-11-26T06:27:13.745Z,-2.22
2022-11-26T06:29:16.807Z,-2.23
2022-11-26T06:31:19.466Z,-2.20
2022-11-26T06:33:22.389Z,-2.21
2022-11-26T06:35:25.157Z,-2.17
2022-11-26T06:37:27.869Z,-2.14
2022-11-26T06:39:30.617Z,-2.10
2022-11-26T06:41:36.565Z,-2.11
2022-11-26T06:43:41.237Z,-2.07
2022-11-26T06:45:43.948Z,-2.05
2022-11-26T06:47:48.344Z,-2.05
2022-11-26T06:49:51.038Z,-2.03
2022-11-26T06:51:54.293Z,-2.02
2022-11-26T06:53:57.146Z,-2.01
2022-11-26T06:56:05.497Z,-1.97
2022-11-26T06:58:08.122Z,-2.01
2022-11-26T07:00:11.594Z,-1.99
2022-11-26T07:02:14.364Z,-1.96
2022-11-26T07:04:17.071Z,-1.95
2022-11-26T07:06:24.184Z,-1.95
2022-11-26T07:08:27.088Z,-1.96
2022-11-26T07:10:30.287Z,-1.96
2022-11-26T07:12:32.981Z,-1.95
2022-11-26T07:14:37.143Z,-1.95
2022-11-26T07:16:41.339Z,-1.96
2022-11-26T07:18:47.618Z,-1.96
2022-11-26T07:20:50.298Z,-1.92
2022-11-26T07:22:55.906Z,-1.91
2022-11-26T07:24:58.469Z,-1.87
2022-11-26T07:27:01.235Z,-1.88
2022-11-26T07:29:04.221Z,-1.85
2022-11-26T07:31:17.007Z,-1.83
2022-11-26T07:33:20.052Z,-1.80
2022-11-26T07:35:22.718Z,-1.78
2022-11-26T07:37:25.315Z,-1.76
2022-11-26T07:39:27.970Z,-1.71
2022-11-26T07:41:31.228Z,-1.66
2022-11-26T07:43:38.756Z,-1.61
2022-11-26T07:45:41.532Z,-1.64
2022-11-26T07:47:44.223Z,-1.53
2022-11-26T07:49:46.942Z,-1.53
2022-11-26T07:51:49.645Z,-1.54
2022-11-26T07:53:53.092Z,-1.53
2022-11-26T07:55:55.933Z,-1.58
2022-11-26T07:57:58.827Z,-1.57
2022-11-26T08:00:01.447Z,-1.59
2022-11-26T08:02:05.173Z,-1.60
2022-11-26T08:04:08.103Z,-1.59
2022-11-26T08:06:13.667Z,-1.65
2022-11-26T08:08:16.375Z,-1.61
2022-11-26T08:10:19.210Z,-1.56
2022-11-26T08:12:21.885Z,-1.56
2022-11-26T08:14:24.474Z,-1.56
2022-11-26T08:16:29.116Z,-1.57
2022-11-26T08:18:32.057Z,-1.58
2022-11-26T08:20:34.667Z,-1.56
2022-11-26T08:22:37.349Z,-1.59
2022-11-26T08:24:40.413Z,-1.54
2022-11-26T08:26:44.807Z,-1.53
2022-11-26T08:28:48.318Z,-1.46
2022-11-26T08:30:51.049Z,-1.40
2022-11-26T08:32:53.697Z,-1.40
2022-11-26T08:34:56.381Z,-1.37
2022-11-26T08:36:59.211Z,-1.32
2022-11-26T08:39:01.853Z,-1.29
2022-11-26T08:41:07.935Z,-1.29
2022-11-26T08:43:10.544Z,-1.26
2022-11-26T08:45:13.165Z,-1.24
2022-11-26T08:47:15.802Z,-1.23
2022-11-26T08:49:18.376Z,-1.24
2022-11-26T08:51:20.921Z,-1.22
2022-11-26T08:53:23.599Z,-1.22
2022-11-26T08:55:27.085Z,-1.28
2022-11-26T08:57:30.314Z,-1.22
2022-11-26T08:59:33.547Z,-1.21
2022-11-26T09:01:36.855Z,-1.22
2022-11-26T09:03:40.690Z,-1.21
2022-11-26T09:05:43.833Z,-1.21
2022-11-26T09:07:49.103Z,-1.18
2022-11-26T09:09:52.080Z,-1.15
2022-11-26T09:12:00.212Z,-1.09
2022-11-26T09:14:03.918Z,-1.07
2022-11-26T09:16:06.752Z,-1.04
2022-11-26T09:18:09.461Z,-1.02
2022-11-26T09:20:12.871Z,-1.03
2022-11-26T09:22:15.564Z,-1.05
2022-11-26T09:24:18.495Z,-1.03
2022-11-26T09:26:21.960Z,-1.04
2022-11-26T09:28:24.573Z,-1.03
2022-11-26T09:30:27.390Z,-1.03
2022-11-26T09:32:34.040Z,-1.01
2022-11-26T09:34:37.719Z,-0.99
2022-11-26T09:36:40.729Z,-0.98
2022-11-26T09:38:43.884Z,-0.99
2022-11-26T09:40:59.822Z,-0.91
2022-11-26T09:43:15.695Z,-0.90
2022-11-26T09:45:48.263Z,-0.87
2022-11-26T09:47:54.088Z,-0.84
2022-11-26T09:50:09.210Z,-0.81
2022-11-26T09:52:16.721Z,-0.77
2022-11-26T09:54:23.763Z,-0.75
2022-11-26T09:56:27.977Z,-0.71
2022-11-26T09:58:40.771Z,-0.71
2022-11-26T10:00:46.448Z,-0.66
2022-11-26T10:02:52.717Z,-0.66
2022-11-26T10:04:55.396Z,-0.62
2022-11-26T10:07:22.934Z,-0.60
2022-11-26T10:09:44.678Z,-0.59
2022-11-26T10:12:04.036Z,-0.61
2022-11-26T10:14:12.413Z,-0.58
2022-11-26T10:16:28.519Z,-0.56
2022-11-26T10:18:47.754Z,-0.56
2022-11-26T10:21:02.375Z,-0.56
2022-11-26T10:23:13.930Z,-0.53
2022-11-26T10:25:20.719Z,-0.53
2022-11-26T10:27:27.270Z,-0.53
2022-11-26T10:29:42.849Z,-0.50
2022-11-26T10:31:48.045Z,-0.48
2022-11-26T10:34:04.290Z,-0.49
2022-11-26T10:36:16.154Z,-0.48
2022-11-26T10:38:19.313Z,-0.51
2022-11-26T10:40:26.769Z,-0.47
2022-11-26T10:42:44.513Z,-0.48
2022-11-26T10:44:49.659Z,-0.47
2022-11-26T10:46:52.359Z,-0.48
2022-11-26T10:48:54.988Z,-0.44
2022-11-26T10:51:07.417Z,-0.43
2022-11-26T10:53:22.469Z,-0.39
2022-11-26T10:55:28.059Z,-0.37
2022-11-26T10:57:30.791Z,-0.36
2022-11-26T10:59:41.049Z,-0.37
2022-11-26T11:01:44.092Z,-0.35
2022-11-26T11:04:13.899Z,-0.33
2022-11-26T11:06:19.574Z,-0.32
2022-11-26T11:08:33.169Z,-0.35
2022-11-26T11:10:36.188Z,-0.32
2022-11-26T11:12:40.943Z,-0.31
2022-11-26T11:14:45.845Z,-0.28
2022-11-26T11:16:48.851Z,-0.30
2022-11-26T11:19:03.172Z,-0.30
2022-11-26T11:21:06.669Z,-0.29
2022-11-26T11:23:12.509Z,-0.28
2022-11-26T11:25:23.922Z,-0.28
2022-11-26T11:27:37.879Z,-0.27
2022-11-26T11:29:40.800Z,-0.25
2022-11-26T11:31:47.347Z,-0.24
2022-11-26T11:33:51.772Z,-0.24
2022-11-26T11:36:00.332Z,-0.24
2022-11-26T11:38:03.156Z,-0.22
2022-11-26T11:40:17.080Z,-0.20
2022-11-26T11:42:30.321Z,-0.23
2022-11-26T11:44:44.602Z,-0.23
2022-11-26T11:47:13.112Z,-0.20
2022-11-26T11:49:41.402Z,-0.20
2022-11-26T11:52:12.232Z,-0.19
2022-11-26T11:55:10.822Z,-0.19
2022-11-26T11:58:09.821Z,-0.22
2022-11-26T12:00:17.219Z,-0.23
2022-11-26T12:02:32.403Z,-0.20
2022-11-26T12:05:04.846Z,-0.21
2022-11-26T12:07:25.839Z,-0.25
2022-11-26T12:09:34.261Z,-0.24
2022-11-26T12:12:12.850Z,-0.26
2022-11-26T12:14:23.821Z,-0.27
2022-11-26T12:16:32.601Z,-0.25
2022-11-26T12:18:51.740Z,-0.24
2022-11-26T12:20:59.852Z,-0.24
2022-11-26T12:23:27.027Z,-0.22
2022-11-26T12:25:37.880Z,-0.20
2022-11-26T12:27:47.165Z,-0.23
2022-11-26T12:30:15.005Z,-0.20
2022-11-26T12:32:25.755Z,-0.17
2022-11-26T12:34:41.340Z,-0.17
2022-11-26T12:37:05.501Z,-0.22
2022-11-26T12:39:19.337Z,-0.19
2022-11-26T12:41:43.954Z,-0.19
2022-11-26T12:44:11.878Z,-0.21
2022-11-26T12:46:23.106Z,-0.25
2022-11-26T12:48:43.594Z,-0.27
2022-11-26T12:50:56.031Z,-0.27
2022-11-26T12:53:27.041Z,-0.34
2022-11-26T12:55:42.004Z,-0.36
2022-11-26T12:57:55.776Z,-0.32
2022-11-26T13:00:11.376Z,-0.35
2022-11-26T13:02:31.806Z,-0.39
2022-11-26T13:04:38.419Z,-0.40
2022-11-26T13:06:44.167Z,-0.44
2022-11-26T13:08:55.056Z,-0.44
2022-11-26T13:11:18.781Z,-0.49
2022-11-26T13:13:30.335Z,-0.48
2022-11-26T13:16:03.787Z,-0.51
2022-11-26T13:18:18.498Z,-0.53
2022-11-26T13:20:45.374Z,-0.56
2022-11-26T13:23:19.478Z,-0.53
2022-11-26T13:25:58.749Z,-0.57
2022-11-26T13:28:25.863Z,-0.65
2022-11-26T13:30:46.702Z,-0.64
2022-11-26T13:33:04.592Z,-0.70
2022-11-26T13:35:40.873Z,-0.67
2022-11-26T13:38:11.268Z,-0.68
2022-11-26T13:40:19.576Z,-0.68
2022-11-26T13:42:34.249Z,-0.67
2022-11-26T13:44:54.607Z,-0.68
2022-11-26T13:47:28.197Z,-0.72
2022-11-26T13:49:52.711Z,-0.75
2022-11-26T13:52:23.886Z,-0.76
2022-11-26T13:54:47.249Z,-0.76
2022-11-26T13:56:57.302Z,-0.78
2022-11-26T13:59:26.843Z,-0.79
2022-11-26T14:01:41.525Z,-0.80
2022-11-26T14:03:47.246Z,-0.76
2022-11-26T14:05:49.737Z,-0.79
2022-11-26T14:08:30.709Z,-0.76
2022-11-26T14:10:38.966Z,-0.77
2022-11-26T14:13:03.132Z,-0.79
2022-11-26T14:15:41.106Z,-0.83
2022-11-26T14:17:57.023Z,-0.87
2022-11-26T14:20:00.183Z,-0.88
2022-11-26T14:22:03.938Z,-0.84
2022-11-26T14:24:06.758Z,-0.86
2022-11-26T14:26:19.329Z,-0.89
2022-11-26T14:28:22.536Z,-0.93
2022-11-26T14:30:28.508Z,-0.93
2022-11-26T14:32:37.808Z,-0.95
2022-11-26T14:34:49.862Z,-0.99
2022-11-26T14:36:54.023Z,-1.02
2022-11-26T14:39:10.122Z,-1.05
2022-11-26T14:41:12.795Z,-1.07
2022-11-26T14:43:20.286Z,-1.09
2022-11-26T14:45:24.406Z,-1.11
2022-11-26T14:47:27.461Z,-1.10
2022-11-26T14:49:32.477Z,-1.09
2022-11-26T14:51:35.705Z,-1.11
2022-11-26T14:53:47.693Z,-1.11
2022-11-26T14:55:50.717Z,-1.17
2022-11-26T14:58:04.867Z,-1.19
2022-11-26T15:00:12.922Z,-1.19
2022-11-26T15:02:22.557Z,-1.22
2022-11-26T15:04:30.535Z,-1.26
2022-11-26T15:06:38.657Z,-1.28
2022-11-26T15:08:41.359Z,-1.30
2022-11-26T15:10:49.707Z,-1.29
2022-11-26T15:12:53.727Z,-1.31
2022-11-26T15:14:59.180Z,-1.33
2022-11-26T15:17:03.225Z,-1.33
2022-11-26T15:19:07.251Z,-1.31
2022-11-26T15:21:16.991Z,-1.31
2022-11-26T15:23:28.493Z,-1.30
2022-11-26T15:25:34.718Z,-1.30
2022-11-26T15:27:41.322Z,-1.31
2022-11-26T15:29:50.209Z,-1.34
2022-11-26T15:31:52.784Z,-1.37
2022-11-26T15:33:55.465Z,-1.40
2022-11-26T15:35:58.545Z,-1.39
2022-11-26T15:38:01.308Z,-1.34
2022-11-26T15:40:22.751Z,-1.40
2022-11-26T15:42:30.117Z,-1.47
2022-11-26T15:44:40.533Z,-1.51
2022-11-26T15:46:49.478Z,-1.52
2022-11-26T15:48:59.346Z,-1.55
2022-11-26T15:51:04.810Z,-1.56
2022-11-26T15:53:17.547Z,-1.61
2022-11-26T15:55:26.561Z,-1.60
2022-11-26T15:57:33.874Z,-1.61
2022-11-26T15:59:49.956Z,-1.65
2022-11-26T16:01:53.158Z,-1.70
2022-11-26T16:03:57.094Z,-1.70
2022-11-26T16:06:01.269Z,-1.71
2022-11-26T16:08:28.250Z,-1.68
2022-11-26T16:10:35.762Z,-1.67
2022-11-26T16:12:44.493Z,-1.67
2022-11-26T16:14:47.031Z,-1.67
2022-11-26T16:16:52.913Z,-1.69
2022-11-26T16:19:01.210Z,-1.69
2022-11-26T16:21:30.782Z,-1.76
2022-11-26T16:23:33.615Z,-1.76
2022-11-26T16:25:37.483Z,-1.73
2022-11-26T16:27:40.097Z,-1.74
2022-11-26T16:29:42.633Z,-1.73
2022-11-26T16:31:45.431Z,-1.77
2022-11-26T16:33:48.001Z,-1.77
2022-11-26T16:35:50.569Z,-1.76
2022-11-26T16:37:53.782Z,-1.78
2022-11-26T16:40:26.413Z,-1.81
2022-11-26T16:42:30.512Z,-1.85
2022-11-26T16:44:33.064Z,-1.87
2022-11-26T16:46:38.008Z,-1.86
2022-11-26T16:48:41.746Z,-1.83
2022-11-26T16:50:44.596Z,-1.84
2022-11-26T16:52:47.660Z,-1.85
2022-11-26T16:54:50.519Z,-1.89
2022-11-26T16:56:56.086Z,-1.86
2022-11-26T16:59:00.134Z,-1.84
2022-11-26T17:01:02.854Z,-1.82
2022-11-26T17:03:08.093Z,-1.84
2022-11-26T17:05:13.501Z,-1.87
2022-11-26T17:07:21.050Z,-1.93
2022-11-26T17:09:23.589Z,-1.95
2022-11-26T17:11:26.801Z,-1.99
2022-11-26T17:13:31.198Z,-1.97
2022-11-26T17:15:33.971Z,-1.96
2022-11-26T17:17:36.713Z,-1.98
2022-11-26T17:19:39.452Z,-1.98
2022-11-26T17:21:42.576Z,-1.96
2022-11-26T17:23:45.196Z,-1.96
2022-11-26T17:25:53.441Z,-1.98
2022-11-26T17:27:56.125Z,-1.97
2022-11-26T17:29:58.637Z,-2.00
2022-11-26T17:32:01.531Z,-2.02
2022-11-26T17:34:04.245Z,-2.02
2022-11-26T17:36:16.571Z,-2.08
2022-11-26T17:38:21.977Z,-2.06
2022-11-26T17:40:25.165Z,-2.10
2022-11-26T17:42:32.173Z,-2.15
2022-11-26T17:44:37.646Z,-2.14
2022-11-26T17:47:09.014Z,-2.19
2022-11-26T17:49:04.653Z,-2.20
2022-11-26T17:51:07.548Z,-2.23
2022-11-26T17:53:10.210Z,-2.23
2022-11-26T17:55:13.712Z,-2.21
2022-11-26T17:57:17.310Z,-2.21
2022-11-26T17:59:21.922Z,-2.19
2022-11-26T18:01:26.785Z,-2.20
2022-11-26T18:03:29.483Z,-2.20
2022-11-26T18:05:32.096Z,-2.20
2022-11-26T18:07:42.881Z,-2.20
2022-11-26T18:09:47.071Z,-2.19
2022-11-26T18:11:53.462Z,-2.23
2022-11-26T18:13:56.088Z,-2.20
2022-11-26T18:16:01.746Z,-2.23
2022-11-26T18:18:04.718Z,-2.24
2022-11-26T18:20:07.955Z,-2.24
2022-11-26T18:22:14.473Z,-2.29
2022-11-26T18:24:17.289Z,-2.28
2022-11-26T18:26:19.953Z,-2.31
2022-11-26T18:28:22.539Z,-2.35
2022-11-26T18:30:25.486Z,-2.40
2022-11-26T18:32:28.176Z,-2.35
2022-11-26T18:34:30.730Z,-2.38
2022-11-26T18:36:33.357Z,-2.40
2022-11-26T18:38:37.944Z,-2.43
2022-11-26T18:40:40.549Z,-2.41
2022-11-26T18:42:44.101Z,-2.40
2022-11-26T18:44:46.714Z,-2.41
2022-11-26T18:46:49.344Z,-2.36
2022-11-26T18:48:52.331Z,-2.35
2022-11-26T18:50:58.070Z,-2.41
2022-11-26T18:53:00.748Z,-2.42
2022-11-26T18:55:05.666Z,-2.41
2022-11-26T18:57:08.679Z,-2.40
2022-11-26T18:59:14.702Z,-2.37
2022-11-26T19:01:29.764Z,-2.41
2022-11-26T19:03:33.743Z,-2.40
2022-11-26T19:05:40.157Z,-2.44
2022-11-26T19:07:44.144Z,-2.45
2022-11-26T19:10:07.485Z,-2.46
2022-11-26T19:12:12.993Z,-2.53
2022-11-26T19:14:16.532Z,-2.55
2022-11-26T19:16:20.182Z,-2.53
2022-11-26T19:18:22.813Z,-2.52
2022-11-26T19:20:25.370Z,-2.51
2022-11-26T19:22:27.925Z,-2.54
2022-11-26T19:24:30.796Z,-2.52
2022-11-26T19:26:34.075Z,-2.53
2022-11-26T19:28:36.622Z,-2.58
2022-11-26T19:30:39.303Z,-2.56
2022-11-26T19:32:42.106Z,-2.58
2022-11-26T19:34:44.866Z,-2.59
2022-11-26T19:36:49.180Z,-2.55
2022-11-26T19:38:56.624Z,-2.57
2022-11-26T19:41:00.625Z,-2.59
2022-11-26T19:43:03.256Z,-2.62
2022-11-26T19:45:06.285Z,-2.59
2022-11-26T19:47:28.905Z,-2.58
2022-11-26T19:49:31.535Z,-2.60
2022-11-26T19:51:34.192Z,-2.60
2022-11-26T19:53:38.139Z,-2.59
2022-11-26T19:55:40.945Z,-2.61
2022-11-26T19:57:43.570Z,-2.69
2022-11-26T19:59:46.249Z,-2.66
2022-11-26T20:01:49.272Z,-2.65
2022-11-26T20:03:52.373Z,-2.67
2022-11-26T20:05:54.952Z,-2.68
2022-11-26T20:07:57.747Z,-2.73
2022-11-26T20:10:00.387Z,-2.80
2022-11-26T20:12:03.048Z,-2.78
2022-11-26T20:14:09.699Z,-2.79
2022-11-26T20:16:16.006Z,-2.80
2022-11-26T20:18:18.578Z,-2.81
2022-11-26T20:20:21.401Z,-2.85
2022-11-26T20:22:27.769Z,-2.85
2022-11-26T20:24:31.069Z,-2.91
2022-11-26T20:26:39.157Z,-2.91
2022-11-26T20:28:41.763Z,-2.94
2022-11-26T20:30:44.323Z,-2.95
2022-11-26T20:32:49.270Z,-2.94
2022-11-26T20:34:51.849Z,-2.99
2022-11-26T20:36:54.460Z,-2.99
2022-11-26T20:39:00.396Z,-3.06
2022-11-26T20:41:17.940Z,-3.09
2022-11-26T20:43:20.534Z,-3.12
2022-11-26T20:45:23.185Z,-3.11
2022-11-26T20:47:25.736Z,-3.11
2022-11-26T20:49:33.416Z,-3.09
2022-11-26T20:51:37.856Z,-3.06
2022-11-26T20:53:41.777Z,-3.08
2022-11-26T20:55:53.329Z,-3.08
2022-11-26T20:57:56.413Z,-3.09
2022-11-26T20:59:59.092Z,-3.08
2022-11-26T21:02:01.801Z,-3.04
2022-11-26T21:04:04.940Z,-3.03
2022-11-26T21:06:07.829Z,-3.03
2022-11-26T21:08:10.813Z,-3.05
2022-11-26T21:10:14.802Z,-3.04
2022-11-26T21:12:17.421Z,-3.03
2022-11-26T21:14:20.026Z,-3.08
2022-11-26T21:16:23.577Z,-3.11
2022-11-26T21:18:26.399Z,-3.11
2022-11-26T21:20:33.428Z,-3.11
2022-11-26T21:22:39.083Z,-3.12
2022-11-26T21:24:41.725Z,-3.14
2022-11-26T21:26:44.378Z,-3.16
2022-11-26T21:28:54.622Z,-3.14
2022-11-26T21:30:58.537Z,-3.13
2022-11-26T21:33:08.787Z,-3.14
2022-11-26T21:35:12.158Z,-3.13
2022-11-26T21:37:14.760Z,-3.16
2022-11-26T21:39:17.437Z,-3.17
2022-11-26T21:41:21.082Z,-3.19
2022-11-26T21:43:23.656Z,-3.21
2022-11-26T21:45:27.912Z,-3.22
2022-11-26T21:47:30.656Z,-3.24
2022-11-26T21:49:33.454Z,-3.27
2022-11-26T21:51:36.229Z,-3.26
2022-11-26T21:53:39.227Z,-3.28
2022-11-26T21:55:42.017Z,-3.29
2022-11-26T21:57:44.661Z,-3.33
2022-11-26T21:59:47.366Z,-3.29
2022-11-26T22:01:50.121Z,-3.33
2022-11-26T22:03:54.719Z,-3.23
2022-11-26T22:05:59.874Z,-3.23
2022-11-26T22:08:03.193Z,-3.30
2022-11-26T22:10:07.628Z,-3.27
2022-11-26T22:12:11.600Z,-3.27
2022-11-26T22:14:16.144Z,-3.26
2022-11-26T22:16:20.593Z,-3.25
2022-11-26T22:18:23.309Z,-3.30
2022-11-26T22:20:26.237Z,-3.30
2022-11-26T22:22:28.842Z,-3.33
2022-11-26T22:24:31.546Z,-3.37
2022-11-26T22:26:34.618Z,-3.40
2022-11-26T22:28:38.852Z,-3.43
2022-11-26T22:30:41.479Z,-3.43
2022-11-26T22:32:44.261Z,-3.44
2022-11-26T22:34:46.864Z,-3.47
2022-11-26T22:36:49.502Z,-3.54
2022-11-26T22:38:52.718Z,-3.49
2022-11-26T22:40:55.368Z,-3.50
2022-11-26T22:42:59.049Z,-3.51
2022-11-26T22:45:01.805Z,-3.48
2022-11-26T22:47:06.260Z,-3.49
2022-11-26T22:49:13.203Z,-3.52
2022-11-26T22:51:15.758Z,-3.52
2022-11-26T22:53:18.611Z,-3.55
2022-11-26T22:55:21.336Z,-3.58
2022-11-26T22:57:25.652Z,-3.57
2022-11-26T22:59:28.371Z,-3.58
2022-11-26T23:01:33.748Z,-3.59
2022-11-26T23:03:38.366Z,-3.64
2022-11-26T23:05:41.269Z,-3.62
2022-11-26T23:07:43.927Z,-3.66
2022-11-26T23:09:47.095Z,-3.63
2022-11-26T23:11:51.021Z,-3.66
2022-11-26T23:13:54.649Z,-3.67
2022-11-26T23:15:57.280Z,-3.66
2022-11-26T23:18:00.018Z,-3.68
2022-11-26T23:20:02.874Z,-3.68
2022-11-26T23:22:06.469Z,-3.71
2022-11-26T23:24:09.708Z,-3.73
2022-11-26T23:26:19.451Z,-3.71
2022-11-26T23:28:25.887Z,-3.73
2022-11-26T23:30:29.136Z,-3.80
2022-11-26T23:32:32.697Z,-3.73
2022-11-26T23:34:35.385Z,-3.75
2022-11-26T23:36:38.854Z,-3.78
2022-11-26T23:38:41.658Z,-3.77
2022-11-26T23:40:44.296Z,-3.78
2022-11-26T23:42:47.010Z,-3.77
2022-11-26T23:44:49.641Z,-3.80
2022-11-26T23:46:52.432Z,-3.79
2022-11-26T23:48:55.884Z,-3.77
2022-11-26T23:50:59.068Z,-3.76
2022-11-26T23:53:01.674Z,-3.75
2022-11-26T23:55:04.547Z,-3.76
2022-11-26T23:57:11.823Z,-3.75
2022-11-26T23:59:18.617Z,-3.76
